Airport View

Enter AWOS ICAO identifier for current METAR.

ex. KFNL

KRFD 031454Z 36003KT 10SM FEW250 30/19 A3010 RMK AO2 SLP184 T03000189 50004

3 Jul 2020 15:56

Phone: 815-484-6229

Other Area AWOS: KRPJ - KFEP - KDKB - KJVL

TAF KRFD 031500Z 0315/0412 35003KT P6SM FEW060 SCT300 FM031700 01007KT P6SM SCT050 FM040400 VRB03KT P6SM FEW300